Baileyville, Texas
Current Conditions -  °F | °C
As of 10:35 PM on Thursday 20 Nov 2014 (Local Time) from KT35 Reporting Station
Overcast Overcast  
Wind Chill: 61°   Ceiling: 700
Heat Index: 61°   Visibility: 10mi
Dew Point: 59°   Wind: 10mph
Humidity: 94%   Direction: 150°SSE
Pressure: 30.08"   Gusts: NA
Location:  31.0981°N, 96.99°W
Report Text: KT35 210435Z AUTO 15009KT 10SM OVC007 16/15 A3008 RMK AO2 T01610152
Loading
Personal Weather Stations






























Interactive Weather Map New forecast layout! Learn more

10-Day Weather Forecast

Advertisements
Track Severe Weather on mobile